Palmer, Alaska
Current Conditions -  °F | °C
As of 6:14 AM on Saturday 25 Oct 2014 (Local Time) from PAAQ Reporting Station
Haze Haze  
Wind Chill: 28°   Ceiling: 1400
Heat Index: 28°   Visibility: 6mi
Dew Point: 27°   Wind: 0mph
Humidity: 96%   Direction: NA
Pressure: 29.89"   Gusts: NA
Location:  61.6°N, 149.11°W
Report Text: PAAQ 251414Z AUTO 00000KT 6SM BR FEW008 OVC014 M02/M03 A2989 RMK AO2 T10221028 TSNO
Loading
Personal Weather Stations






























Interactive Weather Map
Tropical Storm Tracking
New forecast layout! Learn more

10-Day Weather Forecast

Advertisements
Track Severe Weather on mobile